Hovedside
METAR-TAF:

METAR-TAF

Lufthavner :

Mora–Siljan

Mora, Sverige

breddegrad: 60-57-31N, lengdegrad: 14-30-40E, høyde over havet: 193 m

Gjeldene værobservasjon

Denne rapporten ble laget for 26 minutter siden, klokken 06:20 UTC
Vind 2 kt fra Nord
Temperatur 0°C
Luftfuktighet 100%
Trykk 1022 hPa
Sikt: 4100 m
dis

METAR: ESKM 150620Z AUTO 35002KT 4100 BR OVC008/// M00/M00 Q1022

Tid: 07:46 (06:46 UTC)


TAF: fraværende

Værobservasjoner og værvarsel for over 4000 flyplasser (METAR- og TAF-rapporter).

Tilgjengelige stasjoner er representert av de røde og gule prikkene på kartet.

Hold musepekeren over prikken for å se navnet på stasjonen.

Klikk så for å se værobservasjoner og -varsler.

For å forandre kartet kan du klikke på den grønne knappen med svart kryss for å zoome inn, på den grønne knappen med strek for å zoome ut, eller på de grønne pilene for å se tilstøtende kart.


METAR-TAF: